sensor_id;sensor_type;location;lat;lon;timestamp;P1;durP1;ratioP1;P2;durP2;ratioP2
4857;SDS011;58975;51.978;8.472;2023-05-17T00:00:34;5.15;;;1.52;;
4857;SDS011;58975;51.978;8.472;2023-05-17T00:05:30;4.82;;;1.50;;
4857;SDS011;58975;51.978;8.472;2023-05-17T00:10:27;3.38;;;1.98;;
4857;SDS011;58975;51.978;8.472;2023-05-17T00:15:23;3.47;;;1.42;;
4857;SDS011;58975;51.978;8.472;2023-05-17T00:20:20;2.95;;;1.60;;
4857;SDS011;58975;51.978;8.472;2023-05-17T00:25:16;4.05;;;1.63;;
4857;SDS011;58975;51.978;8.472;2023-05-17T00:30:13;4.10;;;1.70;;
4857;SDS011;58975;51.978;8.472;2023-05-17T00:35:10;6.68;;;1.48;;
4857;SDS011;58975;51.978;8.472;2023-05-17T00:40:07;4.03;;;1.42;;
4857;SDS011;58975;51.978;8.472;2023-05-17T00:45:04;4.82;;;2.03;;
4857;SDS011;58975;51.978;8.472;2023-05-17T00:50:02;7.20;;;2.17;;
4857;SDS011;58975;51.978;8.472;2023-05-17T00:54:58;5.90;;;1.77;;
4857;SDS011;58975;51.978;8.472;2023-05-17T00:59:55;3.92;;;1.83;;
4857;SDS011;58975;51.978;8.472;2023-05-17T01:04:52;3.15;;;1.60;;
4857;SDS011;58975;51.978;8.472;2023-05-17T01:09:49;3.28;;;1.60;;
4857;SDS011;58975;51.978;8.472;2023-05-17T01:14:48;2.50;;;1.80;;
4857;SDS011;58975;51.978;8.472;2023-05-17T01:19:52;4.07;;;1.83;;
4857;SDS011;58975;51.978;8.472;2023-05-17T01:30:14;6.05;;;2.78;;
4857;SDS011;58975;51.978;8.472;2023-05-17T01:35:13;7.28;;;2.35;;
4857;SDS011;58975;51.978;8.472;2023-05-17T01:40:11;5.37;;;2.40;;
4857;SDS011;58975;51.978;8.472;2023-05-17T01:45:20;5.72;;;2.45;;
4857;SDS011;58975;51.978;8.472;2023-05-17T01:50:20;4.75;;;2.25;;
4857;SDS011;58975;51.978;8.472;2023-05-17T02:00:23;7.57;;;2.35;;
4857;SDS011;58975;51.978;8.472;2023-05-17T02:05:20;4.70;;;3.05;;
4857;SDS011;58975;51.978;8.472;2023-05-17T02:10:17;7.03;;;2.47;;
4857;SDS011;58975;51.978;8.472;2023-05-17T02:15:13;7.93;;;2.15;;
4857;SDS011;58975;51.978;8.472;2023-05-17T02:20:11;5.77;;;3.00;;
4857;SDS011;58975;51.978;8.472;2023-05-17T02:25:08;5.47;;;2.25;;
4857;SDS011;58975;51.978;8.472;2023-05-17T02:30:05;5.57;;;2.53;;
4857;SDS011;58975;51.978;8.472;2023-05-17T02:35:02;7.13;;;2.40;;
4857;SDS011;58975;51.978;8.472;2023-05-17T02:39:59;7.22;;;3.00;;
4857;SDS011;58975;51.978;8.472;2023-05-17T02:44:55;3.55;;;2.15;;
4857;SDS011;58975;51.978;8.472;2023-05-17T02:49:53;7.30;;;2.70;;
4857;SDS011;58975;51.978;8.472;2023-05-17T02:54:49;2.95;;;2.15;;
4857;SDS011;58975;51.978;8.472;2023-05-17T02:59:46;3.85;;;2.05;;
4857;SDS011;58975;51.978;8.472;2023-05-17T03:04:43;4.03;;;2.30;;
4857;SDS011;58975;51.978;8.472;2023-05-17T03:09:40;4.15;;;2.70;;
4857;SDS011;58975;51.978;8.472;2023-05-17T03:14:38;5.93;;;2.57;;
4857;SDS011;58975;51.978;8.472;2023-05-17T03:19:34;5.00;;;2.30;;
4857;SDS011;58975;51.978;8.472;2023-05-17T03:24:31;4.82;;;2.40;;
4857;SDS011;58975;51.978;8.472;2023-05-17T03:29:27;6.25;;;2.53;;
4857;SDS011;58975;51.978;8.472;2023-05-17T03:34:23;4.20;;;2.65;;
4857;SDS011;58975;51.978;8.472;2023-05-17T03:39:20;6.07;;;2.42;;
4857;SDS011;58975;51.978;8.472;2023-05-17T03:44:17;6.13;;;2.20;;
4857;SDS011;58975;51.978;8.472;2023-05-17T03:49:13;6.32;;;2.55;;
4857;SDS011;58975;51.978;8.472;2023-05-17T03:54:10;5.60;;;2.25;;
4857;SDS011;58975;51.978;8.472;2023-05-17T03:59:06;6.97;;;2.50;;
4857;SDS011;58975;51.978;8.472;2023-05-17T04:04:03;6.93;;;2.70;;
4857;SDS011;58975;51.978;8.472;2023-05-17T04:09:01;5.97;;;2.70;;
4857;SDS011;58975;51.978;8.472;2023-05-17T04:13:57;5.13;;;2.60;;
4857;SDS011;58975;51.978;8.472;2023-05-17T04:18:54;6.85;;;2.92;;
4857;SDS011;58975;51.978;8.472;2023-05-17T04:23:51;7.85;;;3.78;;
4857;SDS011;58975;51.978;8.472;2023-05-17T04:28:47;6.88;;;2.70;;
4857;SDS011;58975;51.978;8.472;2023-05-17T04:33:44;10.38;;;3.35;;
4857;SDS011;58975;51.978;8.472;2023-05-17T04:38:40;5.68;;;3.13;;
4857;SDS011;58975;51.978;8.472;2023-05-17T04:43:37;7.50;;;3.42;;
4857;SDS011;58975;51.978;8.472;2023-05-17T04:48:34;6.75;;;3.20;;
4857;SDS011;58975;51.978;8.472;2023-05-17T04:53:31;5.80;;;3.55;;
4857;SDS011;58975;51.978;8.472;2023-05-17T04:58:27;6.80;;;3.85;;
4857;SDS011;58975;51.978;8.472;2023-05-17T05:03:24;11.57;;;4.43;;
4857;SDS011;58975;51.978;8.472;2023-05-17T05:08:21;8.20;;;3.97;;
4857;SDS011;58975;51.978;8.472;2023-05-17T05:13:18;12.82;;;4.55;;
4857;SDS011;58975;51.978;8.472;2023-05-17T05:18:14;13.15;;;4.88;;
4857;SDS011;58975;51.978;8.472;2023-05-17T05:23:11;8.77;;;4.65;;
4857;SDS011;58975;51.978;8.472;2023-05-17T05:28:07;18.15;;;4.32;;
4857;SDS011;58975;51.978;8.472;2023-05-17T05:33:03;8.75;;;4.47;;
4857;SDS011;58975;51.978;8.472;2023-05-17T05:38:00;16.17;;;5.30;;
4857;SDS011;58975;51.978;8.472;2023-05-17T05:42:56;14.02;;;5.47;;
4857;SDS011;58975;51.978;8.472;2023-05-17T05:47:53;26.60;;;5.57;;
4857;SDS011;58975;51.978;8.472;2023-05-17T05:52:49;22.95;;;6.22;;
4857;SDS011;58975;51.978;8.472;2023-05-17T05:57:46;15.13;;;5.30;;
4857;SDS011;58975;51.978;8.472;2023-05-17T06:02:42;15.32;;;4.93;;
4857;SDS011;58975;51.978;8.472;2023-05-17T06:07:39;21.42;;;6.85;;
4857;SDS011;58975;51.978;8.472;2023-05-17T06:12:35;12.65;;;6.18;;
4857;SDS011;58975;51.978;8.472;2023-05-17T06:17:32;21.38;;;5.88;;
4857;SDS011;58975;51.978;8.472;2023-05-17T06:22:28;21.40;;;5.63;;
4857;SDS011;58975;51.978;8.472;2023-05-17T06:27:25;24.15;;;5.63;;
4857;SDS011;58975;51.978;8.472;2023-05-17T06:32:21;19.90;;;6.22;;
4857;SDS011;58975;51.978;8.472;2023-05-17T06:37:18;11.57;;;4.05;;
4857;SDS011;58975;51.978;8.472;2023-05-17T06:42:14;12.23;;;3.05;;
4857;SDS011;58975;51.978;8.472;2023-05-17T06:47:11;8.77;;;2.15;;
4857;SDS011;58975;51.978;8.472;2023-05-17T06:52:07;12.20;;;2.47;;
4857;SDS011;58975;51.978;8.472;2023-05-17T06:57:04;15.60;;;2.53;;
4857;SDS011;58975;51.978;8.472;2023-05-17T07:02:00;8.85;;;1.95;;
4857;SDS011;58975;51.978;8.472;2023-05-17T07:06:57;16.33;;;2.90;;
4857;SDS011;58975;51.978;8.472;2023-05-17T07:11:53;11.10;;;1.70;;
4857;SDS011;58975;51.978;8.472;2023-05-17T07:16:50;10.10;;;2.67;;
4857;SDS011;58975;51.978;8.472;2023-05-17T07:21:46;8.00;;;2.28;;
4857;SDS011;58975;51.978;8.472;2023-05-17T07:26:43;10.55;;;2.42;;
4857;SDS011;58975;51.978;8.472;2023-05-17T07:31:41;9.15;;;2.05;;
4857;SDS011;58975;51.978;8.472;2023-05-17T07:36:37;9.95;;;1.52;;
4857;SDS011;58975;51.978;8.472;2023-05-17T07:41:34;14.98;;;2.75;;
4857;SDS011;58975;51.978;8.472;2023-05-17T07:46:31;17.10;;;1.95;;
4857;SDS011;58975;51.978;8.472;2023-05-17T07:51:28;8.52;;;1.55;;
4857;SDS011;58975;51.978;8.472;2023-05-17T07:56:24;10.73;;;1.88;;
4857;SDS011;58975;51.978;8.472;2023-05-17T08:01:21;11.65;;;1.73;;
4857;SDS011;58975;51.978;8.472;2023-05-17T08:06:18;8.50;;;1.07;;
4857;SDS011;58975;51.978;8.472;2023-05-17T08:11:15;10.18;;;1.55;;
4857;SDS011;58975;51.978;8.472;2023-05-17T08:16:11;11.93;;;1.83;;
4857;SDS011;58975;51.978;8.472;2023-05-17T08:21:10;10.70;;;1.70;;
4857;SDS011;58975;51.978;8.472;2023-05-17T08:26:06;7.38;;;1.20;;
4857;SDS011;58975;51.978;8.472;2023-05-17T08:31:03;8.80;;;1.48;;
4857;SDS011;58975;51.978;8.472;2023-05-17T08:36:00;9.75;;;1.10;;
4857;SDS011;58975;51.978;8.472;2023-05-17T08:40:58;4.32;;;0.82;;
4857;SDS011;58975;51.978;8.472;2023-05-17T08:45:55;6.90;;;1.95;;
4857;SDS011;58975;51.978;8.472;2023-05-17T08:50:53;9.27;;;1.00;;
4857;SDS011;58975;51.978;8.472;2023-05-17T08:55:52;9.05;;;1.23;;
4857;SDS011;58975;51.978;8.472;2023-05-17T09:00:53;6.68;;;1.83;;
4857;SDS011;58975;51.978;8.472;2023-05-17T09:05:51;7.13;;;2.13;;
4857;SDS011;58975;51.978;8.472;2023-05-17T09:10:49;6.68;;;0.90;;
4857;SDS011;58975;51.978;8.472;2023-05-17T09:15:46;4.68;;;1.20;;
4857;SDS011;58975;51.978;8.472;2023-05-17T09:20:48;5.32;;;1.30;;
4857;SDS011;58975;51.978;8.472;2023-05-17T09:25:47;7.22;;;1.17;;
4857;SDS011;58975;51.978;8.472;2023-05-17T09:30:46;9.18;;;1.48;;
4857;SDS011;58975;51.978;8.472;2023-05-17T09:35:44;6.55;;;1.02;;
4857;SDS011;58975;51.978;8.472;2023-05-17T09:40:41;9.25;;;1.42;;
4857;SDS011;58975;51.978;8.472;2023-05-17T09:45:39;7.60;;;2.15;;
4857;SDS011;58975;51.978;8.472;2023-05-17T09:50:36;3.35;;;0.70;;
4857;SDS011;58975;51.978;8.472;2023-05-17T09:55:32;4.25;;;1.35;;
4857;SDS011;58975;51.978;8.472;2023-05-17T10:00:29;9.40;;;1.05;;
4857;SDS011;58975;51.978;8.472;2023-05-17T10:05:27;4.90;;;1.15;;
4857;SDS011;58975;51.978;8.472;2023-05-17T10:10:24;3.92;;;1.85;;
4857;SDS011;58975;51.978;8.472;2023-05-17T10:15:22;7.32;;;1.48;;
4857;SDS011;58975;51.978;8.472;2023-05-17T10:20:20;3.45;;;0.90;;
4857;SDS011;58975;51.978;8.472;2023-05-17T10:25:17;5.50;;;1.33;;
4857;SDS011;58975;51.978;8.472;2023-05-17T10:30:14;8.30;;;1.52;;
4857;SDS011;58975;51.978;8.472;2023-05-17T10:35:14;9.18;;;1.55;;
4857;SDS011;58975;51.978;8.472;2023-05-17T10:40:11;6.30;;;2.07;;
4857;SDS011;58975;51.978;8.472;2023-05-17T10:45:10;7.27;;;1.30;;
4857;SDS011;58975;51.978;8.472;2023-05-17T10:55:10;8.02;;;1.40;;
4857;SDS011;58975;51.978;8.472;2023-05-17T11:00:07;7.22;;;1.60;;
4857;SDS011;58975;51.978;8.472;2023-05-17T11:05:07;12.07;;;1.90;;
4857;SDS011;58975;51.978;8.472;2023-05-17T11:10:19;8.75;;;1.75;;
4857;SDS011;58975;51.978;8.472;2023-05-17T11:15:15;7.68;;;2.15;;
4857;SDS011;58975;51.978;8.472;2023-05-17T11:25:22;11.45;;;1.20;;
4857;SDS011;58975;51.978;8.472;2023-05-17T11:35:23;4.90;;;1.30;;
4857;SDS011;58975;51.978;8.472;2023-05-17T11:40:25;7.20;;;1.40;;
4857;SDS011;58975;51.978;8.472;2023-05-17T11:45:23;10.23;;;1.55;;
4857;SDS011;58975;51.978;8.472;2023-05-17T11:50:20;23.23;;;2.78;;
4857;SDS011;58975;51.978;8.472;2023-05-17T11:55:16;10.25;;;2.25;;
4857;SDS011;58975;51.978;8.472;2023-05-17T12:00:13;6.90;;;1.63;;
4857;SDS011;58975;51.978;8.472;2023-05-17T12:10:14;15.50;;;2.03;;
4857;SDS011;58975;51.978;8.472;2023-05-17T12:15:16;7.85;;;1.48;;
4857;SDS011;58975;51.978;8.472;2023-05-17T12:20:14;8.63;;;1.85;;
4857;SDS011;58975;51.978;8.472;2023-05-17T12:25:17;7.15;;;1.83;;
4857;SDS011;58975;51.978;8.472;2023-05-17T12:30:15;10.50;;;1.95;;
4857;SDS011;58975;51.978;8.472;2023-05-17T12:35:12;6.00;;;2.03;;
4857;SDS011;58975;51.978;8.472;2023-05-17T12:40:08;8.13;;;1.85;;
4857;SDS011;58975;51.978;8.472;2023-05-17T12:45:07;8.13;;;1.17;;
4857;SDS011;58975;51.978;8.472;2023-05-17T12:50:08;7.10;;;1.65;;
4857;SDS011;58975;51.978;8.472;2023-05-17T12:55:05;11.77;;;1.80;;
4857;SDS011;58975;51.978;8.472;2023-05-17T13:00:07;6.15;;;1.40;;
4857;SDS011;58975;51.978;8.472;2023-05-17T13:05:14;4.97;;;1.30;;
4857;SDS011;58975;51.978;8.472;2023-05-17T13:10:22;4.47;;;1.40;;
4857;SDS011;58975;51.978;8.472;2023-05-17T13:15:30;7.18;;;1.52;;
4857;SDS011;58975;51.978;8.472;2023-05-17T13:20:27;10.48;;;2.88;;
4857;SDS011;58975;51.978;8.472;2023-05-17T13:25:24;11.70;;;1.92;;
4857;SDS011;58975;51.978;8.472;2023-05-17T13:30:21;5.43;;;1.42;;
4857;SDS011;58975;51.978;8.472;2023-05-17T13:35:17;5.85;;;1.50;;
4857;SDS011;58975;51.978;8.472;2023-05-17T13:40:14;5.90;;;2.17;;
4857;SDS011;58975;51.978;8.472;2023-05-17T13:45:10;4.30;;;1.40;;
4857;SDS011;58975;51.978;8.472;2023-05-17T13:50:08;8.73;;;1.60;;
4857;SDS011;58975;51.978;8.472;2023-05-17T13:55:05;6.22;;;1.70;;
4857;SDS011;58975;51.978;8.472;2023-05-17T14:00:02;4.15;;;1.38;;
4857;SDS011;58975;51.978;8.472;2023-05-17T14:05:07;7.72;;;1.38;;
4857;SDS011;58975;51.978;8.472;2023-05-17T14:10:05;6.03;;;1.48;;
4857;SDS011;58975;51.978;8.472;2023-05-17T14:15:03;7.05;;;1.55;;
4857;SDS011;58975;51.978;8.472;2023-05-17T14:20:00;6.80;;;1.48;;
4857;SDS011;58975;51.978;8.472;2023-05-17T14:24:56;3.53;;;1.38;;
4857;SDS011;58975;51.978;8.472;2023-05-17T14:29:53;6.57;;;1.75;;
4857;SDS011;58975;51.978;8.472;2023-05-17T14:34:49;4.55;;;1.17;;
4857;SDS011;58975;51.978;8.472;2023-05-17T14:39:46;10.82;;;1.40;;
4857;SDS011;58975;51.978;8.472;2023-05-17T14:45:01;5.60;;;1.50;;
4857;SDS011;58975;51.978;8.472;2023-05-17T14:49:58;7.70;;;1.73;;
4857;SDS011;58975;51.978;8.472;2023-05-17T14:54:55;9.13;;;1.52;;
4857;SDS011;58975;51.978;8.472;2023-05-17T14:59:51;5.30;;;1.33;;
4857;SDS011;58975;51.978;8.472;2023-05-17T15:04:48;6.45;;;1.80;;
4857;SDS011;58975;51.978;8.472;2023-05-17T15:09:45;7.15;;;1.45;;
4857;SDS011;58975;51.978;8.472;2023-05-17T15:14:41;4.75;;;1.33;;
4857;SDS011;58975;51.978;8.472;2023-05-17T15:19:39;10.18;;;1.88;;
4857;SDS011;58975;51.978;8.472;2023-05-17T15:24:36;4.75;;;1.35;;
4857;SDS011;58975;51.978;8.472;2023-05-17T15:34:33;7.10;;;1.90;;
4857;SDS011;58975;51.978;8.472;2023-05-17T15:39:30;6.55;;;1.83;;
4857;SDS011;58975;51.978;8.472;2023-05-17T15:44:27;4.22;;;1.17;;
4857;SDS011;58975;51.978;8.472;2023-05-17T15:49:23;6.13;;;1.35;;
4857;SDS011;58975;51.978;8.472;2023-05-17T15:54:21;6.60;;;1.07;;
4857;SDS011;58975;51.978;8.472;2023-05-17T15:59:17;4.07;;;1.45;;
4857;SDS011;58975;51.978;8.472;2023-05-17T16:04:13;7.75;;;1.50;;
4857;SDS011;58975;51.978;8.472;2023-05-17T16:09:10;5.28;;;1.40;;
4857;SDS011;58975;51.978;8.472;2023-05-17T16:14:09;6.05;;;2.53;;
4857;SDS011;58975;51.978;8.472;2023-05-17T16:19:06;5.25;;;1.15;;
4857;SDS011;58975;51.978;8.472;2023-05-17T16:24:03;12.00;;;1.40;;
4857;SDS011;58975;51.978;8.472;2023-05-17T16:29:01;5.18;;;2.30;;
4857;SDS011;58975;51.978;8.472;2023-05-17T16:33:58;5.50;;;1.73;;
4857;SDS011;58975;51.978;8.472;2023-05-17T16:38:54;6.05;;;1.48;;
4857;SDS011;58975;51.978;8.472;2023-05-17T16:43:51;8.77;;;1.23;;
4857;SDS011;58975;51.978;8.472;2023-05-17T16:48:47;5.30;;;1.33;;
4857;SDS011;58975;51.978;8.472;2023-05-17T16:53:43;7.47;;;1.40;;
4857;SDS011;58975;51.978;8.472;2023-05-17T16:58:40;3.38;;;1.45;;
4857;SDS011;58975;51.978;8.472;2023-05-17T17:03:36;5.72;;;1.45;;
4857;SDS011;58975;51.978;8.472;2023-05-17T17:08:33;10.15;;;3.17;;
4857;SDS011;58975;51.978;8.472;2023-05-17T17:13:29;5.00;;;1.30;;
4857;SDS011;58975;51.978;8.472;2023-05-17T17:18:26;8.15;;;1.30;;
4857;SDS011;58975;51.978;8.472;2023-05-17T17:23:24;3.80;;;1.13;;
4857;SDS011;58975;51.978;8.472;2023-05-17T17:28:20;3.47;;;1.13;;
4857;SDS011;58975;51.978;8.472;2023-05-17T17:33:17;6.07;;;1.30;;
4857;SDS011;58975;51.978;8.472;2023-05-17T17:38:13;4.03;;;1.40;;
4857;SDS011;58975;51.978;8.472;2023-05-17T17:43:10;4.90;;;1.30;;
4857;SDS011;58975;51.978;8.472;2023-05-17T17:48:06;10.15;;;1.98;;
4857;SDS011;58975;51.978;8.472;2023-05-17T17:53:03;6.78;;;1.80;;
4857;SDS011;58975;51.978;8.472;2023-05-17T17:57:59;4.72;;;1.20;;
4857;SDS011;58975;51.978;8.472;2023-05-17T18:02:56;8.40;;;1.42;;
4857;SDS011;58975;51.978;8.472;2023-05-17T18:07:53;6.82;;;1.88;;
4857;SDS011;58975;51.978;8.472;2023-05-17T18:12:49;3.70;;;1.40;;
4857;SDS011;58975;51.978;8.472;2023-05-17T18:17:47;5.63;;;1.27;;
4857;SDS011;58975;51.978;8.472;2023-05-17T18:22:46;8.57;;;1.58;;
4857;SDS011;58975;51.978;8.472;2023-05-17T18:27:43;11.82;;;1.75;;
4857;SDS011;58975;51.978;8.472;2023-05-17T18:32:39;6.10;;;1.30;;
4857;SDS011;58975;51.978;8.472;2023-05-17T18:37:36;10.52;;;1.60;;
4857;SDS011;58975;51.978;8.472;2023-05-17T18:42:32;8.02;;;2.05;;
4857;SDS011;58975;51.978;8.472;2023-05-17T18:47:29;7.85;;;1.98;;
4857;SDS011;58975;51.978;8.472;2023-05-17T18:52:25;11.85;;;1.90;;
4857;SDS011;58975;51.978;8.472;2023-05-17T18:57:22;5.90;;;1.50;;
4857;SDS011;58975;51.978;8.472;2023-05-17T19:02:18;15.23;;;1.67;;
4857;SDS011;58975;51.978;8.472;2023-05-17T19:07:15;8.25;;;2.08;;
4857;SDS011;58975;51.978;8.472;2023-05-17T19:12:11;5.00;;;1.40;;
4857;SDS011;58975;51.978;8.472;2023-05-17T19:17:08;7.15;;;1.67;;
4857;SDS011;58975;51.978;8.472;2023-05-17T19:22:05;9.63;;;1.92;;
4857;SDS011;58975;51.978;8.472;2023-05-17T19:27:02;5.60;;;2.00;;
4857;SDS011;58975;51.978;8.472;2023-05-17T19:31:58;7.97;;;2.10;;
4857;SDS011;58975;51.978;8.472;2023-05-17T19:36:55;13.75;;;1.30;;
4857;SDS011;58975;51.978;8.472;2023-05-17T19:41:52;9.40;;;1.95;;
4857;SDS011;58975;51.978;8.472;2023-05-17T19:46:48;8.48;;;2.00;;
4857;SDS011;58975;51.978;8.472;2023-05-17T19:51:45;8.60;;;1.92;;
4857;SDS011;58975;51.978;8.472;2023-05-17T19:56:43;4.10;;;1.65;;
4857;SDS011;58975;51.978;8.472;2023-05-17T20:01:39;7.40;;;1.83;;
4857;SDS011;58975;51.978;8.472;2023-05-17T20:06:36;7.40;;;2.22;;
4857;SDS011;58975;51.978;8.472;2023-05-17T20:11:33;8.55;;;1.55;;
4857;SDS011;58975;51.978;8.472;2023-05-17T20:16:29;5.90;;;1.63;;
4857;SDS011;58975;51.978;8.472;2023-05-17T20:21:26;12.25;;;1.73;;
4857;SDS011;58975;51.978;8.472;2023-05-17T20:26:24;6.23;;;1.50;;
4857;SDS011;58975;51.978;8.472;2023-05-17T20:31:22;14.07;;;1.80;;
4857;SDS011;58975;51.978;8.472;2023-05-17T20:36:18;10.93;;;1.80;;
4857;SDS011;58975;51.978;8.472;2023-05-17T20:41:15;6.80;;;1.75;;
4857;SDS011;58975;51.978;8.472;2023-05-17T20:46:12;7.30;;;1.95;;
4857;SDS011;58975;51.978;8.472;2023-05-17T20:51:09;10.20;;;1.95;;
4857;SDS011;58975;51.978;8.472;2023-05-17T20:56:05;6.53;;;2.38;;
4857;SDS011;58975;51.978;8.472;2023-05-17T21:01:02;8.88;;;1.63;;
4857;SDS011;58975;51.978;8.472;2023-05-17T21:05:59;7.13;;;1.70;;
4857;SDS011;58975;51.978;8.472;2023-05-17T21:10:56;7.93;;;2.28;;
4857;SDS011;58975;51.978;8.472;2023-05-17T21:15:53;5.95;;;2.10;;
4857;SDS011;58975;51.978;8.472;2023-05-17T21:20:51;7.45;;;2.10;;
4857;SDS011;58975;51.978;8.472;2023-05-17T21:25:47;7.03;;;2.13;;
4857;SDS011;58975;51.978;8.472;2023-05-17T21:30:44;8.20;;;2.83;;
4857;SDS011;58975;51.978;8.472;2023-05-17T21:35:40;11.82;;;2.40;;
4857;SDS011;58975;51.978;8.472;2023-05-17T21:40:37;14.77;;;2.30;;
4857;SDS011;58975;51.978;8.472;2023-05-17T21:45:34;7.93;;;2.50;;
4857;SDS011;58975;51.978;8.472;2023-05-17T21:50:30;10.60;;;2.50;;
4857;SDS011;58975;51.978;8.472;2023-05-17T21:55:27;8.15;;;2.40;;
4857;SDS011;58975;51.978;8.472;2023-05-17T22:00:41;12.40;;;3.42;;
4857;SDS011;58975;51.978;8.472;2023-05-17T22:05:38;8.57;;;1.95;;
4857;SDS011;58975;51.978;8.472;2023-05-17T22:10:35;7.50;;;2.10;;
4857;SDS011;58975;51.978;8.472;2023-05-17T22:15:32;9.32;;;2.22;;
4857;SDS011;58975;51.978;8.472;2023-05-17T22:20:29;11.80;;;2.50;;
4857;SDS011;58975;51.978;8.472;2023-05-17T22:25:26;7.60;;;2.47;;
4857;SDS011;58975;51.978;8.472;2023-05-17T22:30:23;9.70;;;2.60;;
4857;SDS011;58975;51.978;8.472;2023-05-17T22:35:19;9.60;;;2.53;;
4857;SDS011;58975;51.978;8.472;2023-05-17T22:40:16;8.15;;;2.80;;
4857;SDS011;58975;51.978;8.472;2023-05-17T22:45:12;3.50;;;2.13;;
4857;SDS011;58975;51.978;8.472;2023-05-17T22:50:09;6.75;;;2.45;;
4857;SDS011;58975;51.978;8.472;2023-05-17T22:55:08;15.17;;;3.70;;
4857;SDS011;58975;51.978;8.472;2023-05-17T23:00:06;7.63;;;2.25;;
4857;SDS011;58975;51.978;8.472;2023-05-17T23:05:04;6.70;;;2.42;;
4857;SDS011;58975;51.978;8.472;2023-05-17T23:10:02;10.52;;;2.90;;
4857;SDS011;58975;51.978;8.472;2023-05-17T23:15:02;9.52;;;3.45;;
4857;SDS011;58975;51.978;8.472;2023-05-17T23:20:00;3.92;;;2.10;;
4857;SDS011;58975;51.978;8.472;2023-05-17T23:25:01;6.05;;;2.70;;
4857;SDS011;58975;51.978;8.472;2023-05-17T23:29:58;7.05;;;2.75;;
4857;SDS011;58975;51.978;8.472;2023-05-17T23:34:56;14.40;;;3.13;;
4857;SDS011;58975;51.978;8.472;2023-05-17T23:39:53;5.53;;;2.63;;
4857;SDS011;58975;51.978;8.472;2023-05-17T23:44:50;7.38;;;2.80;;
4857;SDS011;58975;51.978;8.472;2023-05-17T23:49:46;12.40;;;3.03;;
4857;SDS011;58975;51.978;8.472;2023-05-17T23:54:43;10.95;;;3.33;;
4857;SDS011;58975;51.978;8.472;2023-05-17T23:59:40;13.05;;;3.30;;
